sensor_id;sensor_type;location;lat;lon;timestamp;pressure;altitude;pressure_sealevel;temperature;humidity
68197;BME280;55019;49.382;11.358;2023-07-13T00:00:34;96516.75;;;19.35;100.00
68197;BME280;55019;49.382;11.358;2023-07-13T00:02:59;96511.75;;;19.52;100.00
68197;BME280;55019;49.382;11.358;2023-07-13T00:05:25;96505.03;;;19.56;100.00
68197;BME280;55019;49.382;11.358;2023-07-13T00:07:51;96506.78;;;19.44;100.00
68197;BME280;55019;49.382;11.358;2023-07-13T00:10:17;96503.59;;;19.42;100.00
68197;BME280;55019;49.382;11.358;2023-07-13T00:12:44;96491.75;;;19.39;100.00
68197;BME280;55019;49.382;11.358;2023-07-13T00:15:22;96491.66;;;19.46;100.00
68197;BME280;55019;49.382;11.358;2023-07-13T00:17:49;96482.78;;;19.47;100.00
68197;BME280;55019;49.382;11.358;2023-07-13T00:20:16;96486.56;;;19.69;100.00
68197;BME280;55019;49.382;11.358;2023-07-13T00:22:41;96483.19;;;19.62;100.00
68197;BME280;55019;49.382;11.358;2023-07-13T00:25:10;96482.91;;;19.70;100.00
68197;BME280;55019;49.382;11.358;2023-07-13T00:27:36;96505.25;;;19.72;100.00
68197;BME280;55019;49.382;11.358;2023-07-13T00:30:02;96498.97;;;19.73;98.50
68197;BME280;55019;49.382;11.358;2023-07-13T00:32:30;96498.31;;;19.60;98.71
68197;BME280;55019;49.382;11.358;2023-07-13T00:34:56;96508.41;;;19.45;99.49
68197;BME280;55019;49.382;11.358;2023-07-13T00:37:23;96502.63;;;19.36;100.00
68197;BME280;55019;49.382;11.358;2023-07-13T00:39:48;96503.16;;;19.45;100.00
68197;BME280;55019;49.382;11.358;2023-07-13T00:42:14;96502.88;;;19.35;100.00
68197;BME280;55019;49.382;11.358;2023-07-13T00:44:40;96512.09;;;19.19;100.00
68197;BME280;55019;49.382;11.358;2023-07-13T00:47:06;96516.41;;;19.32;100.00
68197;BME280;55019;49.382;11.358;2023-07-13T00:49:33;96508.19;;;19.46;98.57
68197;BME280;55019;49.382;11.358;2023-07-13T00:52:06;96510.56;;;19.48;97.80
68197;BME280;55019;49.382;11.358;2023-07-13T00:54:38;96505.19;;;19.43;97.34
68197;BME280;55019;49.382;11.358;2023-07-13T00:57:08;96502.84;;;19.53;98.67
68197;BME280;55019;49.382;11.358;2023-07-13T00:59:36;96506.78;;;19.62;96.26
68197;BME280;55019;49.382;11.358;2023-07-13T01:02:03;96492.06;;;19.61;95.05
68197;BME280;55019;49.382;11.358;2023-07-13T01:07:16;96488.59;;;19.49;96.48
68197;BME280;55019;49.382;11.358;2023-07-13T01:09:41;96495.44;;;19.50;95.74
68197;BME280;55019;49.382;11.358;2023-07-13T01:12:07;96500.84;;;19.19;96.08
68197;BME280;55019;49.382;11.358;2023-07-13T01:14:33;96505.25;;;19.36;95.58
68197;BME280;55019;49.382;11.358;2023-07-13T01:16:59;96497.25;;;19.31;93.46
68197;BME280;55019;49.382;11.358;2023-07-13T01:22:13;96488.75;;;19.36;93.17
68197;BME280;55019;49.382;11.358;2023-07-13T01:24:40;96486.88;;;19.25;89.93
68197;BME280;55019;49.382;11.358;2023-07-13T01:27:10;96496.03;;;19.34;90.78
68197;BME280;55019;49.382;11.358;2023-07-13T01:29:40;96499.00;;;19.37;91.24
68197;BME280;55019;49.382;11.358;2023-07-13T01:32:11;96492.22;;;19.48;89.93
68197;BME280;55019;49.382;11.358;2023-07-13T01:34:37;96485.56;;;19.34;87.63
68197;BME280;55019;49.382;11.358;2023-07-13T01:37:04;96488.38;;;19.32;88.15
68197;BME280;55019;49.382;11.358;2023-07-13T01:39:30;96483.69;;;19.23;88.28
68197;BME280;55019;49.382;11.358;2023-07-13T01:41:57;96479.06;;;19.00;89.94
68197;BME280;55019;49.382;11.358;2023-07-13T01:44:22;96475.47;;;18.95;92.22
68197;BME280;55019;49.382;11.358;2023-07-13T01:46:48;96478.38;;;18.87;91.59
68197;BME280;55019;49.382;11.358;2023-07-13T01:49:14;96474.28;;;18.73;92.54
68197;BME280;55019;49.382;11.358;2023-07-13T01:51:39;96470.16;;;18.59;93.01
68197;BME280;55019;49.382;11.358;2023-07-13T01:54:05;96473.38;;;18.61;91.66
68197;BME280;55019;49.382;11.358;2023-07-13T01:56:31;96470.94;;;18.66;92.12
68197;BME280;55019;49.382;11.358;2023-07-13T01:58:56;96471.28;;;18.70;90.08
68197;BME280;55019;49.382;11.358;2023-07-13T02:01:22;96478.34;;;18.69;87.32
68197;BME280;55019;49.382;11.358;2023-07-13T02:03:48;96478.97;;;18.65;87.99
68197;BME280;55019;49.382;11.358;2023-07-13T02:06:14;96482.94;;;18.49;86.02
68197;BME280;55019;49.382;11.358;2023-07-13T02:08:40;96473.63;;;18.53;87.14
68197;BME280;55019;49.382;11.358;2023-07-13T02:11:07;96475.34;;;18.66;86.73
68197;BME280;55019;49.382;11.358;2023-07-13T02:13:32;96468.91;;;18.68;87.55
68197;BME280;55019;49.382;11.358;2023-07-13T02:15:58;96477.63;;;18.80;86.87
68197;BME280;55019;49.382;11.358;2023-07-13T02:18:24;96480.47;;;18.79;85.89
68197;BME280;55019;49.382;11.358;2023-07-13T02:20:49;96480.69;;;18.77;84.59
68197;BME280;55019;49.382;11.358;2023-07-13T02:23:15;96472.16;;;18.64;85.72
68197;BME280;55019;49.382;11.358;2023-07-13T02:25:41;96471.75;;;18.60;83.36
68197;BME280;55019;49.382;11.358;2023-07-13T02:28:08;96478.72;;;18.48;84.23
68197;BME280;55019;49.382;11.358;2023-07-13T02:30:34;96479.47;;;18.55;85.22
68197;BME280;55019;49.382;11.358;2023-07-13T02:33:00;96478.59;;;18.61;83.33
68197;BME280;55019;49.382;11.358;2023-07-13T02:35:26;96475.97;;;18.61;82.35
68197;BME280;55019;49.382;11.358;2023-07-13T02:37:52;96477.53;;;18.44;82.21
68197;BME280;55019;49.382;11.358;2023-07-13T02:40:17;96487.59;;;18.47;82.73
68197;BME280;55019;49.382;11.358;2023-07-13T02:42:43;96489.72;;;18.57;81.22
68197;BME280;55019;49.382;11.358;2023-07-13T02:45:09;96493.41;;;18.49;82.36
68197;BME280;55019;49.382;11.358;2023-07-13T02:47:35;96484.06;;;18.35;79.33
68197;BME280;55019;49.382;11.358;2023-07-13T02:50:02;96489.34;;;18.29;80.25
68197;BME280;55019;49.382;11.358;2023-07-13T02:52:28;96488.47;;;18.35;81.31
68197;BME280;55019;49.382;11.358;2023-07-13T02:54:54;96488.13;;;18.31;79.90
68197;BME280;55019;49.382;11.358;2023-07-13T02:57:20;96487.78;;;18.15;80.16
68197;BME280;55019;49.382;11.358;2023-07-13T02:59:46;96498.50;;;18.13;81.22
68197;BME280;55019;49.382;11.358;2023-07-13T03:02:11;96499.59;;;18.24;78.88
68197;BME280;55019;49.382;11.358;2023-07-13T03:04:37;96505.78;;;18.05;79.26
68197;BME280;55019;49.382;11.358;2023-07-13T03:07:04;96512.38;;;18.07;78.05
68197;BME280;55019;49.382;11.358;2023-07-13T03:09:35;96509.44;;;17.97;76.94
68197;BME280;55019;49.382;11.358;2023-07-13T03:12:01;96511.88;;;17.92;78.84
68197;BME280;55019;49.382;11.358;2023-07-13T03:14:30;96508.38;;;18.05;76.91
68197;BME280;55019;49.382;11.358;2023-07-13T03:16:56;96516.13;;;17.87;77.27
68197;BME280;55019;49.382;11.358;2023-07-13T03:19:25;96519.69;;;17.99;78.58
68197;BME280;55019;49.382;11.358;2023-07-13T03:21:51;96522.13;;;17.94;75.99
68197;BME280;55019;49.382;11.358;2023-07-13T03:24:17;96519.28;;;17.95;76.43
68197;BME280;55019;49.382;11.358;2023-07-13T03:26:43;96528.00;;;17.83;75.45
68197;BME280;55019;49.382;11.358;2023-07-13T03:29:09;96522.81;;;17.76;76.52
68197;BME280;55019;49.382;11.358;2023-07-13T03:31:36;96524.78;;;17.81;76.34
68197;BME280;55019;49.382;11.358;2023-07-13T03:34:02;96533.13;;;17.58;76.56
68197;BME280;55019;49.382;11.358;2023-07-13T03:36:30;96537.56;;;17.64;76.50
68197;BME280;55019;49.382;11.358;2023-07-13T03:39:02;96542.56;;;17.66;76.79
68197;BME280;55019;49.382;11.358;2023-07-13T03:41:36;96546.81;;;17.60;76.38
68197;BME280;55019;49.382;11.358;2023-07-13T03:44:03;96547.06;;;17.46;77.20
68197;BME280;55019;49.382;11.358;2023-07-13T03:46:29;96555.44;;;17.54;77.48
68197;BME280;55019;49.382;11.358;2023-07-13T03:48:57;96561.06;;;17.64;77.72
68197;BME280;55019;49.382;11.358;2023-07-13T03:51:23;96561.59;;;17.79;77.09
68197;BME280;55019;49.382;11.358;2023-07-13T03:53:49;96559.81;;;17.73;76.95
68197;BME280;55019;49.382;11.358;2023-07-13T03:56:18;96570.81;;;17.88;75.09
68197;BME280;55019;49.382;11.358;2023-07-13T03:58:45;96563.78;;;17.82;77.15
68197;BME280;55019;49.382;11.358;2023-07-13T04:01:18;96565.41;;;17.83;76.04
68197;BME280;55019;49.382;11.358;2023-07-13T04:03:44;96571.66;;;17.76;74.71
68197;BME280;55019;49.382;11.358;2023-07-13T04:06:16;96574.50;;;17.74;74.94
68197;BME280;55019;49.382;11.358;2023-07-13T04:08:50;96578.72;;;17.75;75.94
68197;BME280;55019;49.382;11.358;2023-07-13T04:11:18;96579.97;;;17.53;74.59
68197;BME280;55019;49.382;11.358;2023-07-13T04:13:44;96585.84;;;17.42;76.00
68197;BME280;55019;49.382;11.358;2023-07-13T04:16:11;96582.63;;;17.41;77.94
68197;BME280;55019;49.382;11.358;2023-07-13T04:18:37;96584.41;;;17.46;75.99
68197;BME280;55019;49.382;11.358;2023-07-13T04:21:03;96584.19;;;17.61;75.87
68197;BME280;55019;49.382;11.358;2023-07-13T04:23:28;96572.53;;;17.63;75.75
68197;BME280;55019;49.382;11.358;2023-07-13T04:25:54;96571.94;;;17.61;77.13
68197;BME280;55019;49.382;11.358;2023-07-13T04:28:22;96569.69;;;17.65;74.81
68197;BME280;55019;49.382;11.358;2023-07-13T04:30:49;96575.63;;;17.85;74.06
68197;BME280;55019;49.382;11.358;2023-07-13T04:33:14;96572.28;;;17.71;72.88
68197;BME280;55019;49.382;11.358;2023-07-13T04:35:43;96574.84;;;17.78;73.43
68197;BME280;55019;49.382;11.358;2023-07-13T04:38:09;96579.47;;;17.89;73.49
68197;BME280;55019;49.382;11.358;2023-07-13T04:40:37;96585.31;;;17.78;72.89
68197;BME280;55019;49.382;11.358;2023-07-13T04:43:03;96584.47;;;17.90;72.49
68197;BME280;55019;49.382;11.358;2023-07-13T04:45:28;96592.53;;;17.89;74.00
68197;BME280;55019;49.382;11.358;2023-07-13T04:47:54;96586.41;;;18.01;73.38
68197;BME280;55019;49.382;11.358;2023-07-13T04:50:20;96595.56;;;17.86;72.78
68197;BME280;55019;49.382;11.358;2023-07-13T04:52:51;96593.25;;;18.02;72.76
68197;BME280;55019;49.382;11.358;2023-07-13T04:55:18;96600.91;;;17.97;74.88
68197;BME280;55019;49.382;11.358;2023-07-13T04:57:45;96591.53;;;17.90;74.40
68197;BME280;55019;49.382;11.358;2023-07-13T05:00:11;96599.97;;;17.85;73.24
68197;BME280;55019;49.382;11.358;2023-07-13T05:02:38;96604.72;;;18.01;72.98
68197;BME280;55019;49.382;11.358;2023-07-13T05:05:05;96597.94;;;17.87;72.26
68197;BME280;55019;49.382;11.358;2023-07-13T05:07:31;96593.53;;;17.88;70.37
68197;BME280;55019;49.382;11.358;2023-07-13T05:09:59;96592.41;;;18.08;72.78
68197;BME280;55019;49.382;11.358;2023-07-13T05:12:26;96597.59;;;18.21;72.68
68197;BME280;55019;49.382;11.358;2023-07-13T05:14:52;96597.00;;;18.19;70.10
68197;BME280;55019;49.382;11.358;2023-07-13T05:17:18;96597.28;;;18.42;70.17
68197;BME280;55019;49.382;11.358;2023-07-13T05:19:43;96600.59;;;18.25;68.45
68197;BME280;55019;49.382;11.358;2023-07-13T05:22:09;96604.03;;;18.19;68.70
68197;BME280;55019;49.382;11.358;2023-07-13T05:24:35;96611.03;;;18.25;70.57
68197;BME280;55019;49.382;11.358;2023-07-13T05:27:01;96615.03;;;18.40;68.79
68197;BME280;55019;49.382;11.358;2023-07-13T05:29:26;96606.31;;;18.46;70.26
68197;BME280;55019;49.382;11.358;2023-07-13T05:31:52;96608.25;;;18.57;67.65
68197;BME280;55019;49.382;11.358;2023-07-13T05:34:18;96618.78;;;18.51;67.44
68197;BME280;55019;49.382;11.358;2023-07-13T05:36:43;96614.31;;;18.58;68.18
68197;BME280;55019;49.382;11.358;2023-07-13T05:39:09;96635.59;;;18.61;67.65
68197;BME280;55019;49.382;11.358;2023-07-13T05:41:35;96626.75;;;18.62;66.33
68197;BME280;55019;49.382;11.358;2023-07-13T05:44:01;96628.97;;;18.65;65.96
68197;BME280;55019;49.382;11.358;2023-07-13T05:46:26;96632.28;;;18.79;66.55
68197;BME280;55019;49.382;11.358;2023-07-13T05:48:52;96628.59;;;18.86;65.50
68197;BME280;55019;49.382;11.358;2023-07-13T05:51:18;96635.34;;;19.00;65.44
68197;BME280;55019;49.382;11.358;2023-07-13T05:53:43;96640.38;;;19.01;64.82
68197;BME280;55019;49.382;11.358;2023-07-13T05:56:09;96628.59;;;18.86;64.38
68197;BME280;55019;49.382;11.358;2023-07-13T05:58:35;96635.03;;;18.90;63.79
68197;BME280;55019;49.382;11.358;2023-07-13T06:01:04;96633.59;;;19.18;64.48
68197;BME280;55019;49.382;11.358;2023-07-13T06:03:30;96636.78;;;19.27;63.50
68197;BME280;55019;49.382;11.358;2023-07-13T06:05:56;96648.88;;;19.46;62.59
68197;BME280;55019;49.382;11.358;2023-07-13T06:08:22;96640.09;;;19.58;61.82
68197;BME280;55019;49.382;11.358;2023-07-13T06:10:48;96646.75;;;19.79;60.65
68197;BME280;55019;49.382;11.358;2023-07-13T06:13:13;96651.75;;;19.62;62.10
68197;BME280;55019;49.382;11.358;2023-07-13T06:15:39;96639.94;;;19.71;60.87
68197;BME280;55019;49.382;11.358;2023-07-13T06:18:05;96645.88;;;20.03;61.81
68197;BME280;55019;49.382;11.358;2023-07-13T06:20:33;96647.03;;;20.25;59.68
68197;BME280;55019;49.382;11.358;2023-07-13T06:23:01;96648.72;;;20.19;57.72
68197;BME280;55019;49.382;11.358;2023-07-13T06:25:27;96646.09;;;20.19;57.78
68197;BME280;55019;49.382;11.358;2023-07-13T06:27:52;96655.50;;;20.27;58.05
68197;BME280;55019;49.382;11.358;2023-07-13T06:30:18;96652.56;;;20.35;57.66
68197;BME280;55019;49.382;11.358;2023-07-13T06:32:44;96651.41;;;20.31;56.17
68197;BME280;55019;49.382;11.358;2023-07-13T06:35:09;96649.59;;;20.13;56.68
68197;BME280;55019;49.382;11.358;2023-07-13T06:37:38;96653.06;;;20.25;57.09
68197;BME280;55019;49.382;11.358;2023-07-13T06:40:04;96664.66;;;20.00;55.35
68197;BME280;55019;49.382;11.358;2023-07-13T06:42:29;96662.69;;;19.95;57.63
68197;BME280;55019;49.382;11.358;2023-07-13T06:44:55;96668.78;;;19.89;56.22
68197;BME280;55019;49.382;11.358;2023-07-13T06:47:21;96676.50;;;20.38;59.51
68197;BME280;55019;49.382;11.358;2023-07-13T06:49:46;96674.09;;;20.54;56.41
68197;BME280;55019;49.382;11.358;2023-07-13T06:52:12;96665.38;;;20.72;55.88
68197;BME280;55019;49.382;11.358;2023-07-13T06:54:38;96671.59;;;20.59;55.21
68197;BME280;55019;49.382;11.358;2023-07-13T06:57:04;96674.94;;;20.66;56.01
68197;BME280;55019;49.382;11.358;2023-07-13T06:59:29;96671.72;;;20.82;55.38
68197;BME280;55019;49.382;11.358;2023-07-13T07:01:55;96668.81;;;20.72;55.07
68197;BME280;55019;49.382;11.358;2023-07-13T07:04:21;96687.72;;;20.92;56.29
68197;BME280;55019;49.382;11.358;2023-07-13T07:06:46;96681.38;;;21.00;54.48
68197;BME280;55019;49.382;11.358;2023-07-13T07:09:12;96683.31;;;21.04;53.27
68197;BME280;55019;49.382;11.358;2023-07-13T07:11:39;96682.81;;;20.66;54.52
68197;BME280;55019;49.382;11.358;2023-07-13T07:14:05;96694.47;;;20.88;54.41
68197;BME280;55019;49.382;11.358;2023-07-13T07:16:30;96692.31;;;20.67;55.13
68197;BME280;55019;49.382;11.358;2023-07-13T07:18:57;96690.69;;;20.84;53.35
68197;BME280;55019;49.382;11.358;2023-07-13T07:21:22;96687.97;;;21.02;53.49
68197;BME280;55019;49.382;11.358;2023-07-13T07:23:48;96696.22;;;20.76;53.02
68197;BME280;55019;49.382;11.358;2023-07-13T07:26:14;96698.56;;;20.66;53.65
68197;BME280;55019;49.382;11.358;2023-07-13T07:28:40;96694.50;;;20.70;53.60
68197;BME280;55019;49.382;11.358;2023-07-13T07:31:06;96709.22;;;20.53;53.37
68197;BME280;55019;49.382;11.358;2023-07-13T07:33:33;96710.59;;;20.74;54.17
68197;BME280;55019;49.382;11.358;2023-07-13T07:36:00;96720.84;;;21.34;54.83
68197;BME280;55019;49.382;11.358;2023-07-13T07:38:26;96714.09;;;21.38;52.48
68197;BME280;55019;49.382;11.358;2023-07-13T07:40:53;96718.00;;;21.47;53.02
68197;BME280;55019;49.382;11.358;2023-07-13T07:43:19;96720.75;;;21.52;51.60
68197;BME280;55019;49.382;11.358;2023-07-13T07:45:45;96717.59;;;21.96;51.80
68197;BME280;55019;49.382;11.358;2023-07-13T07:48:11;96715.53;;;22.60;53.53
68197;BME280;55019;49.382;11.358;2023-07-13T07:50:38;96721.53;;;22.84;49.35
68197;BME280;55019;49.382;11.358;2023-07-13T07:53:05;96717.84;;;23.13;46.97
68197;BME280;55019;49.382;11.358;2023-07-13T07:55:34;96715.56;;;23.33;46.13
68197;BME280;55019;49.382;11.358;2023-07-13T07:58:00;96722.78;;;23.09;49.27
68197;BME280;55019;49.382;11.358;2023-07-13T08:00:26;96721.91;;;22.76;47.64
68197;BME280;55019;49.382;11.358;2023-07-13T08:02:52;96727.03;;;22.54;47.16
68197;BME280;55019;49.382;11.358;2023-07-13T08:05:17;96730.81;;;22.47;47.98
68197;BME280;55019;49.382;11.358;2023-07-13T08:07:43;96730.16;;;21.94;49.52
68197;BME280;55019;49.382;11.358;2023-07-13T08:10:09;96730.50;;;21.75;49.39
68197;BME280;55019;49.382;11.358;2023-07-13T08:12:37;96735.97;;;22.19;50.78
68197;BME280;55019;49.382;11.358;2023-07-13T08:15:04;96731.50;;;22.82;49.95
68197;BME280;55019;49.382;11.358;2023-07-13T08:17:31;96725.00;;;23.29;46.92
68197;BME280;55019;49.382;11.358;2023-07-13T08:19:57;96720.91;;;23.21;46.59
68197;BME280;55019;49.382;11.358;2023-07-13T08:22:22;96734.38;;;23.85;45.38
68197;BME280;55019;49.382;11.358;2023-07-13T08:24:49;96730.78;;;23.91;46.03
68197;BME280;55019;49.382;11.358;2023-07-13T08:27:22;96735.56;;;24.32;44.58
68197;BME280;55019;49.382;11.358;2023-07-13T08:29:48;96738.44;;;24.31;43.24
68197;BME280;55019;49.382;11.358;2023-07-13T08:32:14;96739.31;;;23.98;42.98
68197;BME280;55019;49.382;11.358;2023-07-13T08:34:40;96741.56;;;23.73;41.51
68197;BME280;55019;49.382;11.358;2023-07-13T08:37:06;96742.84;;;23.87;42.23
68197;BME280;55019;49.382;11.358;2023-07-13T08:39:33;96742.66;;;24.10;42.03
68197;BME280;55019;49.382;11.358;2023-07-13T08:42:03;96750.88;;;24.30;40.03
68197;BME280;55019;49.382;11.358;2023-07-13T08:47:02;96754.47;;;25.10;39.46
68197;BME280;55019;49.382;11.358;2023-07-13T08:49:28;96751.44;;;25.23;39.73
68197;BME280;55019;49.382;11.358;2023-07-13T08:51:59;96749.84;;;25.80;37.13
68197;BME280;55019;49.382;11.358;2023-07-13T08:54:37;96748.31;;;25.84;35.43
68197;BME280;55019;49.382;11.358;2023-07-13T08:57:14;96752.66;;;26.00;34.12
68197;BME280;55019;49.382;11.358;2023-07-13T08:59:40;96753.84;;;26.24;35.44
68197;BME280;55019;49.382;11.358;2023-07-13T09:04:49;96749.63;;;25.55;35.04
68197;BME280;55019;49.382;11.358;2023-07-13T09:10:18;96750.66;;;25.22;36.76
68197;BME280;55019;49.382;11.358;2023-07-13T09:15:32;96762.44;;;24.89;34.41
68197;BME280;55019;49.382;11.358;2023-07-13T09:18:04;96757.63;;;25.07;33.41
68197;BME280;55019;49.382;11.358;2023-07-13T09:20:50;96745.16;;;25.55;33.11
68197;BME280;55019;49.382;11.358;2023-07-13T09:23:20;96756.59;;;25.66;34.30
68197;BME280;55019;49.382;11.358;2023-07-13T09:25:53;96767.53;;;26.06;33.86
68197;BME280;55019;49.382;11.358;2023-07-13T09:28:26;96762.84;;;26.23;31.75
68197;BME280;55019;49.382;11.358;2023-07-13T09:33:24;96772.84;;;26.11;31.95
68197;BME280;55019;49.382;11.358;2023-07-13T09:35:50;96770.72;;;25.45;31.28
68197;BME280;55019;49.382;11.358;2023-07-13T09:38:19;96779.38;;;25.67;33.80
68197;BME280;55019;49.382;11.358;2023-07-13T09:41:26;96776.00;;;25.45;33.29
68197;BME280;55019;49.382;11.358;2023-07-13T09:44:30;96771.81;;;25.49;33.64
68197;BME280;55019;49.382;11.358;2023-07-13T09:46:58;96774.19;;;25.24;32.22
68197;BME280;55019;49.382;11.358;2023-07-13T09:49:29;96772.59;;;25.23;31.81
68197;BME280;55019;49.382;11.358;2023-07-13T09:52:15;96773.31;;;24.92;34.08
68197;BME280;55019;49.382;11.358;2023-07-13T09:54:45;96771.50;;;25.19;31.92
68197;BME280;55019;49.382;11.358;2023-07-13T09:57:20;96770.63;;;25.35;33.10
68197;BME280;55019;49.382;11.358;2023-07-13T09:59:50;96770.03;;;25.28;32.58
68197;BME280;55019;49.382;11.358;2023-07-13T10:02:37;96767.63;;;25.53;34.07
68197;BME280;55019;49.382;11.358;2023-07-13T10:05:10;96769.66;;;25.77;32.55
68197;BME280;55019;49.382;11.358;2023-07-13T10:07:43;96769.75;;;26.65;32.77
68197;BME280;55019;49.382;11.358;2023-07-13T10:10:18;96772.09;;;27.23;31.04
68197;BME280;55019;49.382;11.358;2023-07-13T10:12:47;96762.84;;;27.45;28.98
68197;BME280;55019;49.382;11.358;2023-07-13T10:15:22;96760.19;;;27.60;28.92
68197;BME280;55019;49.382;11.358;2023-07-13T10:17:50;96765.00;;;27.83;30.06
68197;BME280;55019;49.382;11.358;2023-07-13T10:20:17;96760.75;;;27.97;30.93
68197;BME280;55019;49.382;11.358;2023-07-13T10:22:44;96762.34;;;27.83;29.53
68197;BME280;55019;49.382;11.358;2023-07-13T10:25:19;96765.47;;;27.35;30.44
68197;BME280;55019;49.382;11.358;2023-07-13T10:27:49;96766.59;;;27.84;30.91
68197;BME280;55019;49.382;11.358;2023-07-13T10:32:44;96762.78;;;27.15;29.98
68197;BME280;55019;49.382;11.358;2023-07-13T10:35:12;96765.88;;;26.97;31.60
68197;BME280;55019;49.382;11.358;2023-07-13T10:37:47;96770.44;;;27.07;29.79
68197;BME280;55019;49.382;11.358;2023-07-13T10:40:19;96778.25;;;27.73;33.44
68197;BME280;55019;49.382;11.358;2023-07-13T10:42:48;96781.97;;;28.17;28.70
68197;BME280;55019;49.382;11.358;2023-07-13T10:45:17;96781.88;;;28.67;27.51
68197;BME280;55019;49.382;11.358;2023-07-13T10:47:44;96768.44;;;29.07;26.36
68197;BME280;55019;49.382;11.358;2023-07-13T10:50:22;96762.53;;;29.15;26.42
68197;BME280;55019;49.382;11.358;2023-07-13T10:52:55;96778.78;;;29.08;26.24
68197;BME280;55019;49.382;11.358;2023-07-13T10:55:55;96773.84;;;28.87;27.29
68197;BME280;55019;49.382;11.358;2023-07-13T10:58:23;96782.50;;;29.61;27.52
68197;BME280;55019;49.382;11.358;2023-07-13T11:03:34;96771.03;;;30.27;28.43
68197;BME280;55019;49.382;11.358;2023-07-13T11:08:38;96777.16;;;29.61;24.80
68197;BME280;55019;49.382;11.358;2023-07-13T11:18:51;96773.81;;;26.92;28.51
68197;BME280;55019;49.382;11.358;2023-07-13T11:21:22;96766.06;;;26.71;27.85
68197;BME280;55019;49.382;11.358;2023-07-13T11:23:54;96769.75;;;27.66;30.30
68197;BME280;55019;49.382;11.358;2023-07-13T11:31:43;96759.91;;;29.86;30.28
68197;BME280;55019;49.382;11.358;2023-07-13T11:34:21;96762.13;;;30.36;27.93
68197;BME280;55019;49.382;11.358;2023-07-13T11:36:49;96757.50;;;28.30;26.94
68197;BME280;55019;49.382;11.358;2023-07-13T11:39:26;96761.25;;;28.04;28.32
68197;BME280;55019;49.382;11.358;2023-07-13T11:42:13;96751.09;;;28.51;28.04
68197;BME280;55019;49.382;11.358;2023-07-13T11:44:47;96750.78;;;28.57;26.31
68197;BME280;55019;49.382;11.358;2023-07-13T11:47:19;96756.50;;;27.91;27.28
68197;BME280;55019;49.382;11.358;2023-07-13T11:49:52;96758.59;;;26.63;28.61
68197;BME280;55019;49.382;11.358;2023-07-13T11:52:24;96764.47;;;28.01;29.75
68197;BME280;55019;49.382;11.358;2023-07-13T11:54:55;96768.19;;;27.85;26.99
68197;BME280;55019;49.382;11.358;2023-07-13T11:59:53;96767.34;;;28.05;27.64
68197;BME280;55019;49.382;11.358;2023-07-13T12:02:35;96758.91;;;27.73;26.87
68197;BME280;55019;49.382;11.358;2023-07-13T12:05:03;96754.09;;;27.65;28.82
68197;BME280;55019;49.382;11.358;2023-07-13T12:07:32;96753.22;;;27.09;27.73
68197;BME280;55019;49.382;11.358;2023-07-13T12:12:46;96754.44;;;28.76;27.68
68197;BME280;55019;49.382;11.358;2023-07-13T12:15:13;96755.84;;;28.54;26.84
68197;BME280;55019;49.382;11.358;2023-07-13T12:17:40;96744.00;;;27.67;26.89
68197;BME280;55019;49.382;11.358;2023-07-13T12:20:33;96752.13;;;27.05;28.11
68197;BME280;55019;49.382;11.358;2023-07-13T12:23:00;96761.81;;;27.76;28.77
68197;BME280;55019;49.382;11.358;2023-07-13T12:25:28;96760.19;;;27.50;27.50
68197;BME280;55019;49.382;11.358;2023-07-13T12:27:55;96762.00;;;27.15;28.49
68197;BME280;55019;49.382;11.358;2023-07-13T12:30:26;96759.94;;;26.70;29.58
68197;BME280;55019;49.382;11.358;2023-07-13T12:32:56;96759.34;;;26.54;30.57
68197;BME280;55019;49.382;11.358;2023-07-13T12:35:22;96757.28;;;26.65;31.41
68197;BME280;55019;49.382;11.358;2023-07-13T12:37:48;96752.78;;;26.66;29.84
68197;BME280;55019;49.382;11.358;2023-07-13T12:40:17;96754.06;;;26.54;29.69
68197;BME280;55019;49.382;11.358;2023-07-13T12:42:49;96750.47;;;26.84;29.33
68197;BME280;55019;49.382;11.358;2023-07-13T12:45:22;96745.81;;;27.21;32.15
68197;BME280;55019;49.382;11.358;2023-07-13T12:47:52;96752.47;;;27.29;29.43
68197;BME280;55019;49.382;11.358;2023-07-13T12:50:21;96751.38;;;27.20;28.67
68197;BME280;55019;49.382;11.358;2023-07-13T12:52:53;96749.94;;;26.82;28.21
68197;BME280;55019;49.382;11.358;2023-07-13T12:55:20;96752.81;;;26.71;29.51
68197;BME280;55019;49.382;11.358;2023-07-13T12:57:57;96755.72;;;26.74;30.42
68197;BME280;55019;49.382;11.358;2023-07-13T13:00:36;96754.91;;;26.23;30.74
68197;BME280;55019;49.382;11.358;2023-07-13T13:03:24;96756.41;;;26.09;29.92
68197;BME280;55019;49.382;11.358;2023-07-13T13:06:05;96751.19;;;26.19;31.01
68197;BME280;55019;49.382;11.358;2023-07-13T13:08:35;96750.91;;;25.79;30.04
68197;BME280;55019;49.382;11.358;2023-07-13T13:11:02;96744.13;;;25.88;31.48
68197;BME280;55019;49.382;11.358;2023-07-13T13:13:28;96743.16;;;25.72;30.25
68197;BME280;55019;49.382;11.358;2023-07-13T13:15:54;96747.34;;;25.10;31.74
68197;BME280;55019;49.382;11.358;2023-07-13T13:18:21;96744.94;;;25.62;33.22
68197;BME280;55019;49.382;11.358;2023-07-13T13:20:48;96740.78;;;25.76;32.78
68197;BME280;55019;49.382;11.358;2023-07-13T13:23:16;96735.53;;;26.12;31.93
68197;BME280;55019;49.382;11.358;2023-07-13T13:25:45;96737.13;;;26.59;29.89
68197;BME280;55019;49.382;11.358;2023-07-13T13:28:16;96733.97;;;26.67;32.39
68197;BME280;55019;49.382;11.358;2023-07-13T13:30:43;96733.59;;;27.25;30.68
68197;BME280;55019;49.382;11.358;2023-07-13T13:33:11;96725.34;;;27.07;30.44
68197;BME280;55019;49.382;11.358;2023-07-13T13:35:38;96726.44;;;27.11;31.55
68197;BME280;55019;49.382;11.358;2023-07-13T13:38:10;96725.69;;;27.80;31.34
68197;BME280;55019;49.382;11.358;2023-07-13T13:40:36;96731.00;;;27.55;29.60